sensor_id;sensor_type;location;lat;lon;timestamp;P1;durP1;ratioP1;P2;durP2;ratioP2
76210;SDS011;65003;49.518;11.280;2022-12-18T00:00:43;19.50;;;11.93;;
76210;SDS011;65003;49.518;11.280;2022-12-18T00:03:09;25.37;;;12.93;;
76210;SDS011;65003;49.518;11.280;2022-12-18T00:05:35;19.13;;;10.90;;
76210;SDS011;65003;49.518;11.280;2022-12-18T00:08:02;23.27;;;11.23;;
76210;SDS011;65003;49.518;11.280;2022-12-18T00:10:29;26.17;;;12.07;;
76210;SDS011;65003;49.518;11.280;2022-12-18T00:12:56;20.20;;;11.33;;
76210;SDS011;65003;49.518;11.280;2022-12-18T00:15:24;21.17;;;11.53;;
76210;SDS011;65003;49.518;11.280;2022-12-18T00:17:50;24.33;;;11.87;;
76210;SDS011;65003;49.518;11.280;2022-12-18T00:20:17;25.53;;;12.43;;
76210;SDS011;65003;49.518;11.280;2022-12-18T00:22:44;19.77;;;11.00;;
76210;SDS011;65003;49.518;11.280;2022-12-18T00:25:10;23.63;;;12.07;;
76210;SDS011;65003;49.518;11.280;2022-12-18T00:27:37;23.90;;;13.10;;
76210;SDS011;65003;49.518;11.280;2022-12-18T00:30:04;25.03;;;13.00;;
76210;SDS011;65003;49.518;11.280;2022-12-18T00:32:32;21.77;;;12.43;;
76210;SDS011;65003;49.518;11.280;2022-12-18T00:34:58;25.27;;;12.40;;
76210;SDS011;65003;49.518;11.280;2022-12-18T00:37:26;26.93;;;13.00;;
76210;SDS011;65003;49.518;11.280;2022-12-18T00:39:52;28.33;;;12.27;;
76210;SDS011;65003;49.518;11.280;2022-12-18T00:42:19;23.00;;;12.27;;
76210;SDS011;65003;49.518;11.280;2022-12-18T00:44:51;23.80;;;12.37;;
76210;SDS011;65003;49.518;11.280;2022-12-18T00:47:18;27.57;;;11.70;;
76210;SDS011;65003;49.518;11.280;2022-12-18T00:49:44;22.20;;;12.33;;
76210;SDS011;65003;49.518;11.280;2022-12-18T00:52:11;25.73;;;11.73;;
76210;SDS011;65003;49.518;11.280;2022-12-18T00:54:37;27.57;;;13.73;;
76210;SDS011;65003;49.518;11.280;2022-12-18T00:57:04;27.27;;;13.13;;
76210;SDS011;65003;49.518;11.280;2022-12-18T00:59:31;22.30;;;11.07;;
76210;SDS011;65003;49.518;11.280;2022-12-18T01:01:57;29.97;;;14.80;;
76210;SDS011;65003;49.518;11.280;2022-12-18T01:04:24;24.70;;;13.07;;
76210;SDS011;65003;49.518;11.280;2022-12-18T01:06:51;25.00;;;11.70;;
76210;SDS011;65003;49.518;11.280;2022-12-18T01:09:19;22.07;;;11.97;;
76210;SDS011;65003;49.518;11.280;2022-12-18T01:11:45;25.10;;;12.63;;
76210;SDS011;65003;49.518;11.280;2022-12-18T01:14:12;24.40;;;11.73;;
76210;SDS011;65003;49.518;11.280;2022-12-18T01:16:38;26.13;;;12.20;;
76210;SDS011;65003;49.518;11.280;2022-12-18T01:19:05;27.40;;;13.43;;
76210;SDS011;65003;49.518;11.280;2022-12-18T01:21:32;24.73;;;11.83;;
76210;SDS011;65003;49.518;11.280;2022-12-18T01:23:58;24.17;;;11.30;;
76210;SDS011;65003;49.518;11.280;2022-12-18T01:26:25;29.27;;;13.13;;
76210;SDS011;65003;49.518;11.280;2022-12-18T01:28:53;32.23;;;14.43;;
76210;SDS011;65003;49.518;11.280;2022-12-18T01:31:19;30.13;;;14.40;;
76210;SDS011;65003;49.518;11.280;2022-12-18T01:33:45;32.23;;;14.03;;
76210;SDS011;65003;49.518;11.280;2022-12-18T01:36:18;29.57;;;14.97;;
76210;SDS011;65003;49.518;11.280;2022-12-18T01:38:44;30.97;;;14.80;;
76210;SDS011;65003;49.518;11.280;2022-12-18T01:41:10;29.37;;;14.60;;
76210;SDS011;65003;49.518;11.280;2022-12-18T01:43:40;28.17;;;13.37;;
76210;SDS011;65003;49.518;11.280;2022-12-18T01:46:13;31.87;;;14.27;;
76210;SDS011;65003;49.518;11.280;2022-12-18T01:48:39;30.00;;;13.83;;
76210;SDS011;65003;49.518;11.280;2022-12-18T01:51:06;31.93;;;15.40;;
76210;SDS011;65003;49.518;11.280;2022-12-18T01:53:32;26.60;;;13.57;;
76210;SDS011;65003;49.518;11.280;2022-12-18T01:55:59;30.27;;;14.43;;
76210;SDS011;65003;49.518;11.280;2022-12-18T01:58:35;35.23;;;15.77;;
76210;SDS011;65003;49.518;11.280;2022-12-18T02:01:03;32.00;;;15.43;;
76210;SDS011;65003;49.518;11.280;2022-12-18T02:03:29;37.30;;;14.47;;
76210;SDS011;65003;49.518;11.280;2022-12-18T02:06:01;33.97;;;16.97;;
76210;SDS011;65003;49.518;11.280;2022-12-18T02:08:26;33.57;;;16.43;;
76210;SDS011;65003;49.518;11.280;2022-12-18T02:10:58;35.63;;;16.83;;
76210;SDS011;65003;49.518;11.280;2022-12-18T02:13:30;41.77;;;17.23;;
76210;SDS011;65003;49.518;11.280;2022-12-18T02:15:59;37.73;;;17.17;;
76210;SDS011;65003;49.518;11.280;2022-12-18T02:18:28;37.83;;;17.03;;
76210;SDS011;65003;49.518;11.280;2022-12-18T02:20:59;38.10;;;17.87;;
76210;SDS011;65003;49.518;11.280;2022-12-18T02:23:28;42.37;;;16.80;;
76210;SDS011;65003;49.518;11.280;2022-12-18T02:28:28;31.27;;;16.87;;
76210;SDS011;65003;49.518;11.280;2022-12-18T02:30:53;41.07;;;17.50;;
76210;SDS011;65003;49.518;11.280;2022-12-18T02:33:20;39.50;;;18.90;;
76210;SDS011;65003;49.518;11.280;2022-12-18T02:35:47;46.10;;;20.07;;
76210;SDS011;65003;49.518;11.280;2022-12-18T02:38:13;50.53;;;20.03;;
76210;SDS011;65003;49.518;11.280;2022-12-18T02:40:40;39.10;;;17.67;;
76210;SDS011;65003;49.518;11.280;2022-12-18T02:43:08;44.37;;;16.90;;
76210;SDS011;65003;49.518;11.280;2022-12-18T02:45:34;42.30;;;19.83;;
76210;SDS011;65003;49.518;11.280;2022-12-18T02:48:01;44.73;;;17.93;;
76210;SDS011;65003;49.518;11.280;2022-12-18T02:50:31;42.23;;;17.80;;
76210;SDS011;65003;49.518;11.280;2022-12-18T02:53:06;41.03;;;17.40;;
76210;SDS011;65003;49.518;11.280;2022-12-18T02:55:45;44.20;;;18.60;;
76210;SDS011;65003;49.518;11.280;2022-12-18T02:58:16;46.93;;;18.97;;
76210;SDS011;65003;49.518;11.280;2022-12-18T03:00:43;45.77;;;19.97;;
76210;SDS011;65003;49.518;11.280;2022-12-18T03:03:11;37.30;;;16.90;;
76210;SDS011;65003;49.518;11.280;2022-12-18T03:05:37;37.23;;;18.63;;
76210;SDS011;65003;49.518;11.280;2022-12-18T03:08:03;40.63;;;19.20;;
76210;SDS011;65003;49.518;11.280;2022-12-18T03:10:31;42.43;;;17.47;;
76210;SDS011;65003;49.518;11.280;2022-12-18T03:12:59;42.40;;;17.43;;
76210;SDS011;65003;49.518;11.280;2022-12-18T03:15:30;47.93;;;19.07;;
76210;SDS011;65003;49.518;11.280;2022-12-18T03:17:59;38.73;;;17.30;;
76210;SDS011;65003;49.518;11.280;2022-12-18T03:20:25;41.73;;;16.87;;
76210;SDS011;65003;49.518;11.280;2022-12-18T03:22:53;41.90;;;17.40;;
76210;SDS011;65003;49.518;11.280;2022-12-18T03:25:18;41.00;;;16.83;;
76210;SDS011;65003;49.518;11.280;2022-12-18T03:27:47;38.80;;;15.90;;
76210;SDS011;65003;49.518;11.280;2022-12-18T03:30:12;35.90;;;15.87;;
76210;SDS011;65003;49.518;11.280;2022-12-18T03:32:43;39.30;;;16.63;;
76210;SDS011;65003;49.518;11.280;2022-12-18T03:35:14;48.17;;;18.20;;
76210;SDS011;65003;49.518;11.280;2022-12-18T03:37:40;36.27;;;16.50;;
76210;SDS011;65003;49.518;11.280;2022-12-18T03:40:06;39.90;;;16.57;;
76210;SDS011;65003;49.518;11.280;2022-12-18T03:42:46;42.17;;;16.83;;
76210;SDS011;65003;49.518;11.280;2022-12-18T03:45:18;39.50;;;17.10;;
76210;SDS011;65003;49.518;11.280;2022-12-18T03:50:45;41.53;;;15.90;;
76210;SDS011;65003;49.518;11.280;2022-12-18T03:53:18;43.47;;;18.63;;
76210;SDS011;65003;49.518;11.280;2022-12-18T03:55:47;37.37;;;17.17;;
76210;SDS011;65003;49.518;11.280;2022-12-18T03:58:15;45.77;;;18.57;;
76210;SDS011;65003;49.518;11.280;2022-12-18T04:00:41;36.63;;;16.13;;
76210;SDS011;65003;49.518;11.280;2022-12-18T04:03:08;38.03;;;16.40;;
76210;SDS011;65003;49.518;11.280;2022-12-18T04:05:35;37.97;;;16.63;;
76210;SDS011;65003;49.518;11.280;2022-12-18T04:08:02;33.93;;;15.57;;
76210;SDS011;65003;49.518;11.280;2022-12-18T04:10:29;37.03;;;15.20;;
76210;SDS011;65003;49.518;11.280;2022-12-18T04:12:56;43.03;;;16.10;;
76210;SDS011;65003;49.518;11.280;2022-12-18T04:15:22;41.90;;;16.83;;
76210;SDS011;65003;49.518;11.280;2022-12-18T04:17:49;38.67;;;15.70;;
76210;SDS011;65003;49.518;11.280;2022-12-18T04:20:15;30.90;;;14.70;;
76210;SDS011;65003;49.518;11.280;2022-12-18T04:22:42;35.00;;;16.53;;
76210;SDS011;65003;49.518;11.280;2022-12-18T04:25:09;34.60;;;15.55;;
76210;SDS011;65003;49.518;11.280;2022-12-18T04:27:38;31.90;;;14.77;;
76210;SDS011;65003;49.518;11.280;2022-12-18T04:30:05;39.73;;;16.93;;
76210;SDS011;65003;49.518;11.280;2022-12-18T04:32:33;36.13;;;15.80;;
76210;SDS011;65003;49.518;11.280;2022-12-18T04:34:59;41.77;;;16.27;;
76210;SDS011;65003;49.518;11.280;2022-12-18T04:37:25;36.70;;;16.77;;
76210;SDS011;65003;49.518;11.280;2022-12-18T04:39:52;33.30;;;15.67;;
76210;SDS011;65003;49.518;11.280;2022-12-18T04:42:18;38.97;;;16.50;;
76210;SDS011;65003;49.518;11.280;2022-12-18T04:44:45;36.20;;;16.20;;
76210;SDS011;65003;49.518;11.280;2022-12-18T04:47:12;36.53;;;15.90;;
76210;SDS011;65003;49.518;11.280;2022-12-18T04:49:38;39.20;;;16.93;;
76210;SDS011;65003;49.518;11.280;2022-12-18T04:52:05;40.10;;;17.03;;
76210;SDS011;65003;49.518;11.280;2022-12-18T04:54:32;41.33;;;17.63;;
76210;SDS011;65003;49.518;11.280;2022-12-18T04:56:59;30.70;;;14.30;;
76210;SDS011;65003;49.518;11.280;2022-12-18T04:59:25;30.97;;;14.73;;
76210;SDS011;65003;49.518;11.280;2022-12-18T05:01:52;33.97;;;15.23;;
76210;SDS011;65003;49.518;11.280;2022-12-18T05:04:18;36.77;;;16.57;;
76210;SDS011;65003;49.518;11.280;2022-12-18T05:06:45;38.40;;;17.03;;
76210;SDS011;65003;49.518;11.280;2022-12-18T05:09:12;35.47;;;15.90;;
76210;SDS011;65003;49.518;11.280;2022-12-18T05:11:38;42.50;;;16.90;;
76210;SDS011;65003;49.518;11.280;2022-12-18T05:14:05;33.43;;;14.80;;
76210;SDS011;65003;49.518;11.280;2022-12-18T05:16:31;33.30;;;15.37;;
76210;SDS011;65003;49.518;11.280;2022-12-18T05:18:58;30.47;;;14.83;;
76210;SDS011;65003;49.518;11.280;2022-12-18T05:21:25;31.33;;;14.87;;
76210;SDS011;65003;49.518;11.280;2022-12-18T05:23:51;27.17;;;13.10;;
76210;SDS011;65003;49.518;11.280;2022-12-18T05:26:18;34.67;;;13.90;;
76210;SDS011;65003;49.518;11.280;2022-12-18T05:28:45;32.23;;;14.80;;
76210;SDS011;65003;49.518;11.280;2022-12-18T05:31:11;36.77;;;14.63;;
76210;SDS011;65003;49.518;11.280;2022-12-18T05:33:38;29.33;;;14.27;;
76210;SDS011;65003;49.518;11.280;2022-12-18T05:36:05;32.30;;;13.97;;
76210;SDS011;65003;49.518;11.280;2022-12-18T05:38:32;34.87;;;14.90;;
76210;SDS011;65003;49.518;11.280;2022-12-18T05:40:58;27.67;;;13.90;;
76210;SDS011;65003;49.518;11.280;2022-12-18T05:43:25;32.53;;;14.23;;
76210;SDS011;65003;49.518;11.280;2022-12-18T05:45:52;32.13;;;15.23;;
76210;SDS011;65003;49.518;11.280;2022-12-18T05:48:18;30.90;;;13.53;;
76210;SDS011;65003;49.518;11.280;2022-12-18T05:50:45;35.87;;;14.37;;
76210;SDS011;65003;49.518;11.280;2022-12-18T05:53:11;32.87;;;14.73;;
76210;SDS011;65003;49.518;11.280;2022-12-18T05:55:39;31.80;;;14.23;;
76210;SDS011;65003;49.518;11.280;2022-12-18T05:58:05;31.17;;;13.10;;
76210;SDS011;65003;49.518;11.280;2022-12-18T06:00:32;31.60;;;15.27;;
76210;SDS011;65003;49.518;11.280;2022-12-18T06:02:58;37.77;;;13.57;;
76210;SDS011;65003;49.518;11.280;2022-12-18T06:05:25;29.47;;;13.73;;
76210;SDS011;65003;49.518;11.280;2022-12-18T06:07:51;30.60;;;14.37;;
76210;SDS011;65003;49.518;11.280;2022-12-18T06:10:18;29.90;;;14.17;;
76210;SDS011;65003;49.518;11.280;2022-12-18T06:12:45;30.67;;;12.93;;
76210;SDS011;65003;49.518;11.280;2022-12-18T06:15:11;28.77;;;14.03;;
76210;SDS011;65003;49.518;11.280;2022-12-18T06:17:38;31.43;;;15.07;;
76210;SDS011;65003;49.518;11.280;2022-12-18T06:20:05;35.73;;;14.53;;
76210;SDS011;65003;49.518;11.280;2022-12-18T06:22:32;27.73;;;13.90;;
76210;SDS011;65003;49.518;11.280;2022-12-18T06:24:58;31.40;;;13.67;;
76210;SDS011;65003;49.518;11.280;2022-12-18T06:27:25;31.80;;;14.83;;
76210;SDS011;65003;49.518;11.280;2022-12-18T06:29:51;34.50;;;14.97;;
76210;SDS011;65003;49.518;11.280;2022-12-18T06:32:18;27.70;;;13.80;;
76210;SDS011;65003;49.518;11.280;2022-12-18T06:34:45;28.27;;;14.30;;
76210;SDS011;65003;49.518;11.280;2022-12-18T06:37:11;26.47;;;14.40;;
76210;SDS011;65003;49.518;11.280;2022-12-18T06:39:38;31.23;;;15.17;;
76210;SDS011;65003;49.518;11.280;2022-12-18T06:42:05;32.40;;;15.13;;
76210;SDS011;65003;49.518;11.280;2022-12-18T06:44:31;33.30;;;14.97;;
76210;SDS011;65003;49.518;11.280;2022-12-18T06:46:58;29.30;;;14.50;;
76210;SDS011;65003;49.518;11.280;2022-12-18T06:49:24;30.27;;;13.00;;
76210;SDS011;65003;49.518;11.280;2022-12-18T06:51:51;33.90;;;14.50;;
76210;SDS011;65003;49.518;11.280;2022-12-18T06:54:18;29.37;;;14.00;;
76210;SDS011;65003;49.518;11.280;2022-12-18T06:56:45;28.40;;;13.70;;
76210;SDS011;65003;49.518;11.280;2022-12-18T06:59:12;31.30;;;12.57;;
76210;SDS011;65003;49.518;11.280;2022-12-18T07:01:37;30.37;;;14.13;;
76210;SDS011;65003;49.518;11.280;2022-12-18T07:04:04;25.33;;;12.10;;
76210;SDS011;65003;49.518;11.280;2022-12-18T07:06:31;29.50;;;13.00;;
76210;SDS011;65003;49.518;11.280;2022-12-18T07:08:58;27.10;;;12.97;;
76210;SDS011;65003;49.518;11.280;2022-12-18T07:11:25;30.00;;;13.33;;
76210;SDS011;65003;49.518;11.280;2022-12-18T07:13:52;27.60;;;12.07;;
76210;SDS011;65003;49.518;11.280;2022-12-18T07:16:19;27.87;;;11.37;;
76210;SDS011;65003;49.518;11.280;2022-12-18T07:18:45;27.60;;;12.33;;
76210;SDS011;65003;49.518;11.280;2022-12-18T07:21:13;29.27;;;12.70;;
76210;SDS011;65003;49.518;11.280;2022-12-18T07:23:38;26.93;;;11.67;;
76210;SDS011;65003;49.518;11.280;2022-12-18T07:26:06;32.20;;;12.63;;
76210;SDS011;65003;49.518;11.280;2022-12-18T07:28:38;30.53;;;12.53;;
76210;SDS011;65003;49.518;11.280;2022-12-18T07:31:03;28.37;;;13.20;;
76210;SDS011;65003;49.518;11.280;2022-12-18T07:33:32;31.27;;;13.87;;
76210;SDS011;65003;49.518;11.280;2022-12-18T07:35:59;28.27;;;13.23;;
76210;SDS011;65003;49.518;11.280;2022-12-18T07:38:26;30.13;;;13.10;;
76210;SDS011;65003;49.518;11.280;2022-12-18T07:40:59;27.80;;;13.60;;
76210;SDS011;65003;49.518;11.280;2022-12-18T07:43:21;27.93;;;13.30;;
76210;SDS011;65003;49.518;11.280;2022-12-18T07:45:48;32.53;;;12.63;;
76210;SDS011;65003;49.518;11.280;2022-12-18T07:48:15;29.63;;;12.73;;
76210;SDS011;65003;49.518;11.280;2022-12-18T07:50:41;26.33;;;12.17;;
76210;SDS011;65003;49.518;11.280;2022-12-18T07:53:08;27.17;;;12.33;;
76210;SDS011;65003;49.518;11.280;2022-12-18T07:55:34;31.47;;;13.80;;
76210;SDS011;65003;49.518;11.280;2022-12-18T07:58:02;25.93;;;12.77;;
76210;SDS011;65003;49.518;11.280;2022-12-18T08:00:28;30.30;;;13.27;;
76210;SDS011;65003;49.518;11.280;2022-12-18T08:02:54;27.63;;;13.33;;
76210;SDS011;65003;49.518;11.280;2022-12-18T08:05:21;30.97;;;13.73;;
76210;SDS011;65003;49.518;11.280;2022-12-18T08:07:47;29.37;;;13.17;;
76210;SDS011;65003;49.518;11.280;2022-12-18T08:10:14;28.87;;;12.90;;
76210;SDS011;65003;49.518;11.280;2022-12-18T08:12:42;35.43;;;13.50;;
76210;SDS011;65003;49.518;11.280;2022-12-18T08:15:08;26.97;;;13.13;;
76210;SDS011;65003;49.518;11.280;2022-12-18T08:17:35;31.47;;;13.43;;
76210;SDS011;65003;49.518;11.280;2022-12-18T08:20:02;32.20;;;13.67;;
76210;SDS011;65003;49.518;11.280;2022-12-18T08:22:29;29.10;;;12.87;;
76210;SDS011;65003;49.518;11.280;2022-12-18T08:24:56;27.93;;;13.20;;
76210;SDS011;65003;49.518;11.280;2022-12-18T08:27:23;30.40;;;13.77;;
76210;SDS011;65003;49.518;11.280;2022-12-18T08:29:50;27.37;;;12.83;;
76210;SDS011;65003;49.518;11.280;2022-12-18T08:32:16;30.00;;;14.50;;
76210;SDS011;65003;49.518;11.280;2022-12-18T08:34:43;29.33;;;14.37;;
76210;SDS011;65003;49.518;11.280;2022-12-18T08:37:09;30.73;;;13.70;;
76210;SDS011;65003;49.518;11.280;2022-12-18T08:39:36;31.53;;;12.17;;
76210;SDS011;65003;49.518;11.280;2022-12-18T08:42:03;27.90;;;13.30;;
76210;SDS011;65003;49.518;11.280;2022-12-18T08:44:35;34.43;;;14.07;;
76210;SDS011;65003;49.518;11.280;2022-12-18T08:47:04;29.80;;;13.90;;
76210;SDS011;65003;49.518;11.280;2022-12-18T08:49:31;28.13;;;13.30;;
76210;SDS011;65003;49.518;11.280;2022-12-18T08:51:57;30.97;;;13.73;;
76210;SDS011;65003;49.518;11.280;2022-12-18T08:54:26;29.40;;;13.98;;
76210;SDS011;65003;49.518;11.280;2022-12-18T08:56:52;30.90;;;14.77;;
76210;SDS011;65003;49.518;11.280;2022-12-18T08:59:19;30.97;;;14.77;;
76210;SDS011;65003;49.518;11.280;2022-12-18T09:01:46;27.10;;;13.77;;
76210;SDS011;65003;49.518;11.280;2022-12-18T09:04:12;34.23;;;13.97;;
76210;SDS011;65003;49.518;11.280;2022-12-18T09:06:39;30.20;;;13.47;;
76210;SDS011;65003;49.518;11.280;2022-12-18T09:09:05;31.30;;;14.50;;
76210;SDS011;65003;49.518;11.280;2022-12-18T09:11:32;25.80;;;12.73;;
76210;SDS011;65003;49.518;11.280;2022-12-18T09:13:59;31.83;;;14.60;;
76210;SDS011;65003;49.518;11.280;2022-12-18T09:16:25;34.27;;;14.80;;
76210;SDS011;65003;49.518;11.280;2022-12-18T09:18:51;27.27;;;13.07;;
76210;SDS011;65003;49.518;11.280;2022-12-18T09:21:19;28.70;;;13.33;;
76210;SDS011;65003;49.518;11.280;2022-12-18T09:23:49;27.97;;;12.73;;
76210;SDS011;65003;49.518;11.280;2022-12-18T09:26:15;28.63;;;13.00;;
76210;SDS011;65003;49.518;11.280;2022-12-18T09:28:42;31.93;;;13.70;;
76210;SDS011;65003;49.518;11.280;2022-12-18T09:31:10;28.55;;;12.37;;
76210;SDS011;65003;49.518;11.280;2022-12-18T09:33:36;27.97;;;12.57;;
76210;SDS011;65003;49.518;11.280;2022-12-18T09:36:03;30.80;;;12.80;;
76210;SDS011;65003;49.518;11.280;2022-12-18T09:38:30;23.73;;;12.90;;
76210;SDS011;65003;49.518;11.280;2022-12-18T09:43:57;31.83;;;12.63;;
76210;SDS011;65003;49.518;11.280;2022-12-18T09:46:26;31.00;;;12.97;;
76210;SDS011;65003;49.518;11.280;2022-12-18T09:48:51;28.97;;;12.80;;
76210;SDS011;65003;49.518;11.280;2022-12-18T09:51:19;25.80;;;11.63;;
76210;SDS011;65003;49.518;11.280;2022-12-18T09:53:47;23.50;;;12.37;;
76210;SDS011;65003;49.518;11.280;2022-12-18T09:56:14;22.27;;;11.23;;
76210;SDS011;65003;49.518;11.280;2022-12-18T09:58:41;26.30;;;12.27;;
76210;SDS011;65003;49.518;11.280;2022-12-18T10:01:11;26.97;;;11.90;;
76210;SDS011;65003;49.518;11.280;2022-12-18T10:03:37;24.50;;;12.23;;
76210;SDS011;65003;49.518;11.280;2022-12-18T10:09:00;25.60;;;11.83;;
76210;SDS011;65003;49.518;11.280;2022-12-18T10:11:43;23.40;;;11.63;;
76210;SDS011;65003;49.518;11.280;2022-12-18T10:14:18;24.03;;;11.23;;
76210;SDS011;65003;49.518;11.280;2022-12-18T10:19:39;24.63;;;11.93;;
76210;SDS011;65003;49.518;11.280;2022-12-18T10:22:13;23.43;;;11.13;;
76210;SDS011;65003;49.518;11.280;2022-12-18T10:24:44;24.13;;;11.50;;
76210;SDS011;65003;49.518;11.280;2022-12-18T10:27:27;23.07;;;11.67;;
76210;SDS011;65003;49.518;11.280;2022-12-18T10:29:53;26.90;;;12.67;;
76210;SDS011;65003;49.518;11.280;2022-12-18T10:32:21;25.27;;;13.53;;
76210;SDS011;65003;49.518;11.280;2022-12-18T10:34:47;24.90;;;12.10;;
76210;SDS011;65003;49.518;11.280;2022-12-18T10:37:16;27.43;;;12.87;;
76210;SDS011;65003;49.518;11.280;2022-12-18T10:39:42;22.83;;;11.37;;
76210;SDS011;65003;49.518;11.280;2022-12-18T10:42:10;25.63;;;12.03;;
76210;SDS011;65003;49.518;11.280;2022-12-18T10:44:36;23.90;;;12.23;;
76210;SDS011;65003;49.518;11.280;2022-12-18T10:47:04;22.83;;;12.53;;
76210;SDS011;65003;49.518;11.280;2022-12-18T10:49:32;25.57;;;11.53;;
76210;SDS011;65003;49.518;11.280;2022-12-18T10:52:06;26.70;;;12.87;;
76210;SDS011;65003;49.518;11.280;2022-12-18T10:54:34;26.93;;;12.83;;
76210;SDS011;65003;49.518;11.280;2022-12-18T11:00:03;24.67;;;11.53;;
76210;SDS011;65003;49.518;11.280;2022-12-18T11:02:35;22.77;;;12.23;;
76210;SDS011;65003;49.518;11.280;2022-12-18T11:05:02;21.93;;;10.77;;
76210;SDS011;65003;49.518;11.280;2022-12-18T11:07:46;25.13;;;12.63;;
76210;SDS011;65003;49.518;11.280;2022-12-18T11:09:59;22.07;;;12.33;;
76210;SDS011;65003;49.518;11.280;2022-12-18T11:12:25;27.07;;;13.63;;
76210;SDS011;65003;49.518;11.280;2022-12-18T11:14:53;23.20;;;12.60;;
76210;SDS011;65003;49.518;11.280;2022-12-18T11:17:20;32.93;;;17.27;;
76210;SDS011;65003;49.518;11.280;2022-12-18T11:19:53;29.60;;;14.70;;
76210;SDS011;65003;49.518;11.280;2022-12-18T11:22:20;33.27;;;17.90;;
76210;SDS011;65003;49.518;11.280;2022-12-18T11:24:53;24.47;;;12.10;;
76210;SDS011;65003;49.518;11.280;2022-12-18T11:27:19;20.50;;;10.83;;
76210;SDS011;65003;49.518;11.280;2022-12-18T11:29:45;25.97;;;11.10;;
76210;SDS011;65003;49.518;11.280;2022-12-18T11:32:32;21.90;;;11.20;;
76210;SDS011;65003;49.518;11.280;2022-12-18T11:34:59;23.20;;;11.23;;
76210;SDS011;65003;49.518;11.280;2022-12-18T11:37:41;19.33;;;10.10;;
76210;SDS011;65003;49.518;11.280;2022-12-18T11:40:16;25.90;;;11.13;;
76210;SDS011;65003;49.518;11.280;2022-12-18T11:42:46;25.33;;;12.30;;
76210;SDS011;65003;49.518;11.280;2022-12-18T11:45:21;23.00;;;11.43;;
76210;SDS011;65003;49.518;11.280;2022-12-18T11:47:49;19.47;;;10.27;;
76210;SDS011;65003;49.518;11.280;2022-12-18T11:50:20;23.30;;;11.33;;
76210;SDS011;65003;49.518;11.280;2022-12-18T11:52:45;19.60;;;10.03;;
76210;SDS011;65003;49.518;11.280;2022-12-18T11:55:13;20.47;;;11.23;;
76210;SDS011;65003;49.518;11.280;2022-12-18T11:57:50;21.87;;;10.63;;
76210;SDS011;65003;49.518;11.280;2022-12-18T12:00:18;22.73;;;11.17;;
76210;SDS011;65003;49.518;11.280;2022-12-18T12:05:39;21.07;;;10.27;;
76210;SDS011;65003;49.518;11.280;2022-12-18T12:08:17;22.87;;;10.80;;
76210;SDS011;65003;49.518;11.280;2022-12-18T12:11:06;22.83;;;10.93;;
76210;SDS011;65003;49.518;11.280;2022-12-18T12:14:57;18.90;;;9.80;;
76210;SDS011;65003;49.518;11.280;2022-12-18T12:19:49;22.63;;;11.20;;
76210;SDS011;65003;49.518;11.280;2022-12-18T12:25:13;24.57;;;11.37;;
76210;SDS011;65003;49.518;11.280;2022-12-18T12:27:45;27.87;;;12.40;;
76210;SDS011;65003;49.518;11.280;2022-12-18T12:30:18;23.43;;;11.00;;
76210;SDS011;65003;49.518;11.280;2022-12-18T12:35:43;22.03;;;10.20;;
76210;SDS011;65003;49.518;11.280;2022-12-18T12:38:12;25.90;;;11.70;;
76210;SDS011;65003;49.518;11.280;2022-12-18T12:40:39;23.30;;;10.20;;
76210;SDS011;65003;49.518;11.280;2022-12-18T12:46:00;22.27;;;10.77;;
76210;SDS011;65003;49.518;11.280;2022-12-18T12:48:33;24.03;;;11.13;;
76210;SDS011;65003;49.518;11.280;2022-12-18T12:51:02;21.03;;;10.77;;
76210;SDS011;65003;49.518;11.280;2022-12-18T12:53:30;22.77;;;11.53;;
76210;SDS011;65003;49.518;11.280;2022-12-18T12:55:55;22.87;;;10.33;;
76210;SDS011;65003;49.518;11.280;2022-12-18T12:58:26;20.40;;;10.47;;
76210;SDS011;65003;49.518;11.280;2022-12-18T13:00:58;26.63;;;12.20;;
76210;SDS011;65003;49.518;11.280;2022-12-18T13:06:08;20.90;;;10.97;;
76210;SDS011;65003;49.518;11.280;2022-12-18T13:08:34;22.40;;;11.07;;
76210;SDS011;65003;49.518;11.280;2022-12-18T13:10:58;22.37;;;11.17;;
76210;SDS011;65003;49.518;11.280;2022-12-18T13:13:40;23.37;;;10.30;;
76210;SDS011;65003;49.518;11.280;2022-12-18T13:16:04;20.07;;;10.13;;
76210;SDS011;65003;49.518;11.280;2022-12-18T13:18:30;21.30;;;10.90;;
76210;SDS011;65003;49.518;11.280;2022-12-18T13:21:08;23.83;;;10.60;;
76210;SDS011;65003;49.518;11.280;2022-12-18T13:23:35;28.07;;;12.30;;
76210;SDS011;65003;49.518;11.280;2022-12-18T13:28:50;19.57;;;10.53;;
76210;SDS011;65003;49.518;11.280;2022-12-18T13:34:09;18.50;;;9.73;;
76210;SDS011;65003;49.518;11.280;2022-12-18T13:36:29;22.57;;;10.87;;
76210;SDS011;65003;49.518;11.280;2022-12-18T13:41:32;21.30;;;10.67;;
76210;SDS011;65003;49.518;11.280;2022-12-18T13:46:43;17.93;;;10.33;;
76210;SDS011;65003;49.518;11.280;2022-12-18T13:49:20;21.27;;;10.43;;
76210;SDS011;65003;49.518;11.280;2022-12-18T13:51:48;21.33;;;10.17;;
76210;SDS011;65003;49.518;11.280;2022-12-18T13:56:50;22.03;;;10.10;;
76210;SDS011;65003;49.518;11.280;2022-12-18T13:59:19;20.27;;;11.37;;
76210;SDS011;65003;49.518;11.280;2022-12-18T14:01:46;21.30;;;10.67;;
76210;SDS011;65003;49.518;11.280;2022-12-18T14:04:20;19.87;;;9.27;;
76210;SDS011;65003;49.518;11.280;2022-12-18T14:06:45;22.50;;;10.60;;
76210;SDS011;65003;49.518;11.280;2022-12-18T14:09:13;21.60;;;10.47;;
76210;SDS011;65003;49.518;11.280;2022-12-18T14:11:39;25.13;;;12.20;;
76210;SDS011;65003;49.518;11.280;2022-12-18T14:14:07;19.90;;;9.97;;
76210;SDS011;65003;49.518;11.280;2022-12-18T14:16:33;25.50;;;10.03;;
76210;SDS011;65003;49.518;11.280;2022-12-18T14:19:00;25.23;;;11.07;;
76210;SDS011;65003;49.518;11.280;2022-12-18T14:21:28;22.67;;;11.07;;
76210;SDS011;65003;49.518;11.280;2022-12-18T14:26:29;21.07;;;11.07;;
76210;SDS011;65003;49.518;11.280;2022-12-18T14:28:57;21.23;;;10.93;;
76210;SDS011;65003;49.518;11.280;2022-12-18T14:31:26;25.27;;;12.20;;
76210;SDS011;65003;49.518;11.280;2022-12-18T14:33:53;24.27;;;11.30;;
76210;SDS011;65003;49.518;11.280;2022-12-18T14:36:20;26.40;;;11.90;;
76210;SDS011;65003;49.518;11.280;2022-12-18T14:38:48;21.10;;;11.13;;
76210;SDS011;65003;49.518;11.280;2022-12-18T14:41:15;22.33;;;10.10;;
76210;SDS011;65003;49.518;11.280;2022-12-18T14:43:42;22.23;;;12.00;;
76210;SDS011;65003;49.518;11.280;2022-12-18T14:48:48;19.57;;;9.93;;
76210;SDS011;65003;49.518;11.280;2022-12-18T14:51:16;20.80;;;10.90;;
76210;SDS011;65003;49.518;11.280;2022-12-18T14:53:43;20.57;;;10.63;;
76210;SDS011;65003;49.518;11.280;2022-12-18T14:56:13;23.70;;;11.37;;
76210;SDS011;65003;49.518;11.280;2022-12-18T14:58:43;28.07;;;11.47;;
76210;SDS011;65003;49.518;11.280;2022-12-18T15:01:06;17.97;;;10.30;;
76210;SDS011;65003;49.518;11.280;2022-12-18T15:03:32;23.53;;;9.93;;
76210;SDS011;65003;49.518;11.280;2022-12-18T15:06:15;19.10;;;9.67;;